createdAt,value
2017-11-01T00:00:52.977Z,65.10
2017-11-01T00:03:19.748Z,65.00
2017-11-01T00:05:47.249Z,65.40
2017-11-01T00:08:13.997Z,65.40
2017-11-01T00:10:40.799Z,65.00
2017-11-01T00:13:08.294Z,65.50
2017-11-01T00:15:35.053Z,65.30
2017-11-01T00:18:01.790Z,65.30
2017-11-01T00:20:28.643Z,65.40
2017-11-01T00:22:55.344Z,65.50
2017-11-01T00:25:22.150Z,65.40
2017-11-01T00:27:49.633Z,64.90
2017-11-01T00:30:16.384Z,64.80
2017-11-01T00:32:43.128Z,64.90
2017-11-01T00:35:10.133Z,65.00
2017-11-01T00:37:36.859Z,65.00
2017-11-01T00:40:04.381Z,65.10
2017-11-01T00:42:31.120Z,64.90
2017-11-01T00:44:57.879Z,65.70
2017-11-01T00:47:25.391Z,65.20
2017-11-01T00:49:52.194Z,65.10
2017-11-01T00:52:18.893Z,65.10
2017-11-01T00:54:45.633Z,65.30
2017-11-01T00:57:12.448Z,65.30
2017-11-01T00:59:39.197Z,65.00
2017-11-01T01:02:05.955Z,64.90
2017-11-01T01:04:32.681Z,64.60
2017-11-01T01:06:59.436Z,65.00
2017-11-01T01:09:26.168Z,64.60
2017-11-01T01:11:53.153Z,64.70
2017-11-01T01:14:19.885Z,64.60
2017-11-01T01:16:47.392Z,64.20
2017-11-01T01:19:14.157Z,64.20
2017-11-01T01:21:40.927Z,64.50
2017-11-01T01:24:07.672Z,64.40
2017-11-01T01:26:34.402Z,64.50
2017-11-01T01:29:01.901Z,64.00
2017-11-01T01:31:28.643Z,64.00
2017-11-01T01:33:55.416Z,63.80
2017-11-01T01:36:22.908Z,64.10
2017-11-01T01:38:49.652Z,64.10
2017-11-01T01:41:16.420Z,63.90
2017-11-01T01:43:43.215Z,63.90
2017-11-01T01:46:09.941Z,64.20
2017-11-01T01:48:36.653Z,64.20
2017-11-01T01:51:03.532Z,64.10
2017-11-01T01:53:31.008Z,64.60
2017-11-01T01:55:57.784Z,64.30
2017-11-01T01:58:24.589Z,64.20
2017-11-01T02:00:51.360Z,64.50
2017-11-01T02:03:18.107Z,64.40
2017-11-01T02:05:44.847Z,64.60
2017-11-01T02:18:22.513Z,64.80
2017-11-01T02:20:49.274Z,64.80
2017-11-01T02:23:16.010Z,64.90
2017-11-01T02:25:43.536Z,64.80
2017-11-01T02:28:10.385Z,64.80
2017-11-01T02:30:37.148Z,64.80
2017-11-01T02:33:04.660Z,65.00
2017-11-01T02:35:31.406Z,65.00
2017-11-01T02:37:58.151Z,65.10
2017-11-01T02:40:24.913Z,65.10
2017-11-01T02:42:52.406Z,65.90
2017-11-01T02:45:19.158Z,65.10
2017-11-01T02:47:45.893Z,65.40
2017-11-01T02:50:12.644Z,65.40
2017-11-01T02:52:39.440Z,65.50
2017-11-01T02:55:06.168Z,65.40
2017-11-01T02:57:33.734Z,65.60
2017-11-01T03:00:01.220Z,66.20
2017-11-01T03:02:27.968Z,65.60
2017-11-01T03:04:54.709Z,65.60
2017-11-01T03:07:21.459Z,65.90
2017-11-01T03:09:48.211Z,65.70
2017-11-01T03:12:15.754Z,65.50
2017-11-01T03:14:42.608Z,65.60
2017-11-01T03:17:09.472Z,65.60
2017-11-01T03:19:37.000Z,65.70
2017-11-01T03:22:03.791Z,65.70
2017-11-01T03:24:30.528Z,65.80
2017-11-01T03:26:57.253Z,65.60
2017-11-01T03:29:24.776Z,65.70
2017-11-01T03:31:51.539Z,65.60
2017-11-01T03:34:18.424Z,65.60
2017-11-01T03:36:45.173Z,65.90
2017-11-01T03:39:11.906Z,65.80
2017-11-01T03:41:38.641Z,65.70
2017-11-01T03:44:05.381Z,65.80
2017-11-01T03:46:32.123Z,65.90
2017-11-01T03:48:58.879Z,65.90
2017-11-01T03:51:25.623Z,66.10
2017-11-01T03:53:52.364Z,66.10
2017-11-01T03:56:19.123Z,66.10
2017-11-01T03:58:45.868Z,66.10
2017-11-01T04:01:13.380Z,66.10
2017-11-01T04:03:40.124Z,66.10
2017-11-01T04:06:06.880Z,66.20
2017-11-01T04:08:33.633Z,66.40
2017-11-01T04:11:00.380Z,66.50
2017-11-01T04:13:27.296Z,66.60
2017-11-01T04:15:54.048Z,66.50
2017-11-01T04:18:20.799Z,66.20
2017-11-01T04:20:47.544Z,66.20
2017-11-01T04:23:15.085Z,66.50
2017-11-01T04:25:41.828Z,67.20
2017-11-01T04:28:08.564Z,66.50
2017-11-01T04:30:35.315Z,66.80
2017-11-01T04:33:02.852Z,66.80
2017-11-01T04:35:29.597Z,66.70
2017-11-01T04:37:56.357Z,66.80
2017-11-01T04:40:23.860Z,67.00
2017-11-01T04:42:50.623Z,67.00
2017-11-01T04:45:17.417Z,66.90
2017-11-01T04:47:44.170Z,67.00
2017-11-01T04:50:10.987Z,67.10
2017-11-01T04:52:38.606Z,67.20
2017-11-01T04:55:05.343Z,67.20
2017-11-01T04:57:32.081Z,67.30
2017-11-01T04:59:58.869Z,67.30
2017-11-01T05:02:25.609Z,67.50
2017-11-01T05:04:52.355Z,67.50
2017-11-01T05:07:19.243Z,67.70
2017-11-01T05:09:45.993Z,67.60
2017-11-01T05:12:12.735Z,67.30
2017-11-01T05:14:39.500Z,67.50
2017-11-01T05:17:06.245Z,67.50
2017-11-01T05:19:32.999Z,67.90
2017-11-01T05:21:59.739Z,67.50
2017-11-01T05:24:26.496Z,67.80
2017-11-01T05:26:53.245Z,67.90
2017-11-01T05:29:20.044Z,68.00
2017-11-01T05:31:47.757Z,68.30
2017-11-01T05:34:14.500Z,68.20
2017-11-01T05:36:42.778Z,68.30
2017-11-01T05:39:09.540Z,68.30
2017-11-01T05:41:37.056Z,68.40
2017-11-01T05:44:03.816Z,68.30
2017-11-01T05:46:30.569Z,68.50
2017-11-01T05:48:58.074Z,69.80
2017-11-01T05:51:24.838Z,68.50
2017-11-01T05:53:51.587Z,68.70
2017-11-01T05:56:18.367Z,68.70
2017-11-01T05:58:45.112Z,68.80
2017-11-01T06:01:11.869Z,68.70
2017-11-01T06:03:38.645Z,68.80
2017-11-01T06:06:05.384Z,68.70
2017-11-01T06:08:32.127Z,68.40
2017-11-01T06:10:58.891Z,68.60
2017-11-01T06:13:26.396Z,68.40
2017-11-01T06:15:53.163Z,68.40
2017-11-01T06:18:19.907Z,68.50
2017-11-01T06:20:46.699Z,68.50
2017-11-01T06:23:13.438Z,69.00
2017-11-01T06:25:40.171Z,68.40
2017-11-01T06:28:06.938Z,68.50
2017-11-01T06:30:33.683Z,68.40
2017-11-01T06:33:00.460Z,68.50
2017-11-01T06:35:27.961Z,68.40
2017-11-01T06:37:54.730Z,68.30
2017-11-01T06:40:21.479Z,68.30
2017-11-01T06:42:49.003Z,68.30
2017-11-01T06:45:15.843Z,68.20
2017-11-01T06:47:42.582Z,68.40
2017-11-01T06:50:09.314Z,68.30
2017-11-01T06:52:36.074Z,68.10
2017-11-01T06:55:02.823Z,68.00
2017-11-01T06:57:29.577Z,68.30
2017-11-01T06:59:57.085Z,68.40
2017-11-01T07:02:23.943Z,68.40
2017-11-01T07:04:50.697Z,68.50
2017-11-01T07:07:18.944Z,68.20
2017-11-01T07:09:45.760Z,68.20
2017-11-01T07:12:12.530Z,68.20
2017-11-01T07:14:39.296Z,68.20
2017-11-01T07:17:06.043Z,69.00
2017-11-01T07:19:33.554Z,68.70
2017-11-01T07:22:00.320Z,68.20
2017-11-01T07:24:27.064Z,68.30
2017-11-01T07:26:53.855Z,68.50
2017-11-01T07:29:20.591Z,68.50
2017-11-01T07:31:47.336Z,68.60
2017-11-01T07:34:14.092Z,68.60
2017-11-01T07:36:40.849Z,68.30
2017-11-01T07:39:07.618Z,68.40
2017-11-01T07:41:34.365Z,68.30
2017-11-01T07:44:01.876Z,68.20
2017-11-01T07:46:28.623Z,68.10
2017-11-01T07:48:55.397Z,67.90
2017-11-01T07:51:22.951Z,67.80
2017-11-01T07:53:50.465Z,67.70
2017-11-01T07:56:17.997Z,68.20
2017-11-01T07:58:44.757Z,67.40
2017-11-01T08:01:11.521Z,67.40
2017-11-01T08:03:38.255Z,67.30
2017-11-01T08:06:04.998Z,67.50
2017-11-01T08:08:31.736Z,67.20
2017-11-01T08:10:58.499Z,66.50
2017-11-01T08:13:26.032Z,66.40
2017-11-01T08:15:52.773Z,66.40
2017-11-01T08:18:19.559Z,67.30
2017-11-01T08:20:47.053Z,66.30
2017-11-01T08:23:13.821Z,66.10
2017-11-01T08:25:40.583Z,65.90
2017-11-01T08:28:08.085Z,66.50
2017-11-01T08:30:34.843Z,66.50
2017-11-01T08:33:01.587Z,66.20
2017-11-01T08:35:28.348Z,65.80
2017-11-01T08:37:55.109Z,65.50
2017-11-01T08:40:21.853Z,65.60
2017-11-01T08:42:48.650Z,65.90
2017-11-01T08:45:15.390Z,65.50
2017-11-01T08:47:42.137Z,64.90
2017-11-01T08:50:09.664Z,66.40
2017-11-01T08:52:36.393Z,65.40
2017-11-01T08:55:03.173Z,65.70
2017-11-01T08:57:29.905Z,65.40
2017-11-01T08:59:56.658Z,65.60
2017-11-01T09:02:24.179Z,65.30
2017-11-01T09:04:50.939Z,65.10
2017-11-01T09:07:19.218Z,65.20
2017-11-01T09:09:45.955Z,65.10
2017-11-01T09:12:12.926Z,64.40
2017-11-01T09:14:39.692Z,64.00
2017-11-01T09:17:06.444Z,64.60
2017-11-01T09:19:33.184Z,64.50
2017-11-01T09:21:59.993Z,64.00
2017-11-01T09:24:26.742Z,64.10
2017-11-01T09:26:53.513Z,64.30
2017-11-01T09:29:20.272Z,64.50
2017-11-01T09:31:47.008Z,64.30
2017-11-01T09:34:13.757Z,65.70
2017-11-01T09:36:41.277Z,64.60
2017-11-01T09:39:08.057Z,64.60
2017-11-01T09:41:35.580Z,64.10
2017-11-01T09:44:02.406Z,64.00
2017-11-01T09:46:29.232Z,63.10
2017-11-01T09:48:56.014Z,63.90
2017-11-01T09:51:22.770Z,63.20
2017-11-01T09:53:49.519Z,64.30
2017-11-01T09:56:17.030Z,63.70
2017-11-01T09:58:43.840Z,63.70
2017-11-01T10:01:11.297Z,63.90
2017-11-01T10:03:38.037Z,63.80
2017-11-01T10:06:04.871Z,64.50
2017-11-01T10:08:32.366Z,65.30
2017-11-01T10:10:59.383Z,64.30
2017-11-01T10:13:26.928Z,64.20
2017-11-01T10:15:53.689Z,64.20
2017-11-01T10:18:20.584Z,64.00
2017-11-01T10:20:47.304Z,63.40
2017-11-01T10:23:14.074Z,63.20
2017-11-01T10:25:41.601Z,63.10
2017-11-01T10:28:08.430Z,63.10
2017-11-01T10:30:35.235Z,62.30
2017-11-01T10:33:01.977Z,62.80
2017-11-01T10:35:28.755Z,62.10
2017-11-01T10:37:55.499Z,62.50
2017-11-01T10:40:22.293Z,62.50
2017-11-01T10:42:49.803Z,62.00
2017-11-01T10:45:16.599Z,62.00
2017-11-01T10:47:43.530Z,61.60
2017-11-01T10:50:11.060Z,61.90
2017-11-01T10:52:38.587Z,61.80
2017-11-01T10:55:05.353Z,61.50
2017-11-01T10:57:32.103Z,61.90
2017-11-01T10:59:59.655Z,60.90
2017-11-01T11:02:26.397Z,60.90
2017-11-01T11:04:53.128Z,60.90
2017-11-01T11:07:20.660Z,61.40
2017-11-01T11:09:47.400Z,61.30
2017-11-01T11:12:14.191Z,62.00
2017-11-01T11:14:41.700Z,61.20
2017-11-01T11:17:08.470Z,61.00
2017-11-01T11:19:35.988Z,61.40
2017-11-01T11:22:02.737Z,61.40
2017-11-01T11:24:29.481Z,62.30
2017-11-01T11:26:56.264Z,61.90
2017-11-01T11:29:23.784Z,60.80
2017-11-01T11:31:50.520Z,60.00
2017-11-01T11:34:17.311Z,59.80
2017-11-01T11:36:44.062Z,59.40
2017-11-01T11:39:10.958Z,58.70
2017-11-01T11:41:37.839Z,58.80
2017-11-01T11:44:04.588Z,58.80
2017-11-01T11:46:31.369Z,58.30
2017-11-01T11:48:58.116Z,58.00
2017-11-01T11:51:24.866Z,58.70
2017-11-01T11:53:52.657Z,57.20
2017-11-01T11:56:19.404Z,57.10
2017-11-01T11:58:46.156Z,56.70
2017-11-01T12:01:12.923Z,56.60
2017-11-01T12:03:39.668Z,56.30
2017-11-01T12:06:06.431Z,56.70
2017-11-01T12:08:33.939Z,55.80
2017-11-01T12:11:00.741Z,55.70
2017-11-01T12:13:28.254Z,55.60
2017-11-01T12:15:55.016Z,55.50
2017-11-01T12:18:21.770Z,55.40
2017-11-01T12:20:48.527Z,55.70
2017-11-01T12:23:15.421Z,56.30
2017-11-01T12:25:42.966Z,55.60
2017-11-01T12:28:09.704Z,55.60
2017-11-01T12:30:36.597Z,55.50
2017-11-01T12:33:03.361Z,55.70
2017-11-01T12:35:30.118Z,55.00
2017-11-01T12:37:56.857Z,55.10
2017-11-01T12:40:23.714Z,54.80
2017-11-01T12:42:50.451Z,54.20
2017-11-01T12:45:17.232Z,54.20
2017-11-01T12:47:43.999Z,54.90
2017-11-01T12:50:10.785Z,54.20
2017-11-01T12:52:38.352Z,54.60
2017-11-01T12:55:05.078Z,53.90
2017-11-01T12:57:32.602Z,55.00
2017-11-01T12:59:59.405Z,54.30
2017-11-01T13:02:26.892Z,54.20
2017-11-01T13:04:53.644Z,54.10
2017-11-01T13:07:20.421Z,54.10
2017-11-01T13:09:47.920Z,54.30
2017-11-01T13:12:14.724Z,54.30
2017-11-01T13:14:42.227Z,53.90
2017-11-01T13:17:08.973Z,53.90
2017-11-01T13:19:35.750Z,54.30
2017-11-01T13:22:03.283Z,54.20
2017-11-01T13:24:30.074Z,54.20
2017-11-01T13:26:56.815Z,53.10
2017-11-01T13:29:23.599Z,53.30
2017-11-01T13:31:50.342Z,53.40
2017-11-01T13:34:17.081Z,53.80
2017-11-01T13:36:43.882Z,53.40
2017-11-01T13:39:10.633Z,53.80
2017-11-01T13:41:37.401Z,54.20
2017-11-01T13:44:04.143Z,54.00
2017-11-01T13:46:30.890Z,53.60
2017-11-01T13:48:57.619Z,52.90
2017-11-01T13:51:24.397Z,52.90
2017-11-01T13:53:51.945Z,52.80
2017-11-01T13:56:19.456Z,52.50
2017-11-01T13:58:46.192Z,52.50
2017-11-01T14:03:46.766Z,53.50
2017-11-01T14:06:13.509Z,53.50
2017-11-01T14:08:40.248Z,52.70
2017-11-01T14:11:07.763Z,52.90
2017-11-01T14:13:34.513Z,52.90
2017-11-01T14:16:01.261Z,53.20
2017-11-01T14:18:28.008Z,52.70
2017-11-01T14:20:54.748Z,53.00
2017-11-01T14:23:21.523Z,53.10
2017-11-01T14:25:49.058Z,53.10
2017-11-01T14:28:15.811Z,53.00
2017-11-01T14:30:43.332Z,53.60
2017-11-01T14:33:10.108Z,53.60
2017-11-01T14:35:36.850Z,53.50
2017-11-01T14:38:04.365Z,54.40
2017-11-01T14:40:31.090Z,54.30
2017-11-01T14:42:57.803Z,54.50
2017-11-01T14:45:24.706Z,53.90
2017-11-01T14:47:52.272Z,54.00
2017-11-01T14:50:19.852Z,54.40
2017-11-01T14:52:46.575Z,54.40
2017-11-01T14:55:14.125Z,54.50
2017-11-01T14:57:40.886Z,54.40
2017-11-01T15:00:08.370Z,55.30
2017-11-01T15:02:35.146Z,54.60
2017-11-01T15:05:01.900Z,54.60
2017-11-01T15:07:28.689Z,54.70
2017-11-01T15:09:55.402Z,55.40
2017-11-01T15:12:22.345Z,54.40
2017-11-01T15:14:49.832Z,55.20
2017-11-01T15:17:16.601Z,55.10
2017-11-01T15:19:44.873Z,55.60
2017-11-01T15:22:11.628Z,55.50
2017-11-01T15:24:38.368Z,55.70
2017-11-01T15:27:05.942Z,56.50
2017-11-01T15:29:33.447Z,55.80
2017-11-01T15:32:00.197Z,55.80
2017-11-01T15:34:26.958Z,56.00
2017-11-01T15:36:54.465Z,57.00
2017-11-01T15:39:21.223Z,56.50
2017-11-01T15:41:47.948Z,56.30
2017-11-01T15:44:14.700Z,56.40
2017-11-01T15:46:41.441Z,56.20
2017-11-01T15:49:08.190Z,56.10
2017-11-01T15:51:34.941Z,55.90
2017-11-01T15:54:01.678Z,56.40
2017-11-01T15:56:28.437Z,56.50
2017-11-01T15:58:55.185Z,56.70
2017-11-01T16:01:22.752Z,56.90
2017-11-01T16:03:49.487Z,56.80
2017-11-01T16:06:16.269Z,57.00
2017-11-01T16:08:43.215Z,57.10
2017-11-01T16:11:10.108Z,57.30
2017-11-01T16:13:37.642Z,57.90
2017-11-01T16:16:04.389Z,57.90
2017-11-01T16:18:31.240Z,58.30
2017-11-01T16:20:57.994Z,58.50
2017-11-01T16:23:24.824Z,58.50
2017-11-01T16:25:52.513Z,58.70
2017-11-01T16:28:19.281Z,58.30
2017-11-01T16:30:46.026Z,58.10
2017-11-01T16:33:12.813Z,57.90
2017-11-01T16:35:40.285Z,58.50
2017-11-01T16:38:07.047Z,58.00
2017-11-01T16:40:33.825Z,58.20
2017-11-01T16:43:01.418Z,58.60
2017-11-01T16:45:28.951Z,58.70
2017-11-01T16:47:56.439Z,59.20
2017-11-01T16:50:23.261Z,58.90
2017-11-01T16:52:50.100Z,59.10
2017-11-01T16:55:17.621Z,59.20
2017-11-01T16:57:44.401Z,59.20
2017-11-01T17:00:11.894Z,59.30
2017-11-01T17:02:38.648Z,59.20
2017-11-01T17:05:05.401Z,59.50
2017-11-01T17:07:32.136Z,59.50
2017-11-01T17:09:58.880Z,61.00
2017-11-01T17:12:25.636Z,59.50
2017-11-01T17:14:53.149Z,59.90
2017-11-01T17:17:19.884Z,59.80
2017-11-01T17:19:46.661Z,60.00
2017-11-01T17:22:13.397Z,60.00
2017-11-01T17:24:40.209Z,59.90
2017-11-01T17:27:06.977Z,59.80
2017-11-01T17:29:33.778Z,59.70
2017-11-01T17:32:00.509Z,59.80
2017-11-01T17:34:27.432Z,59.80
2017-11-01T17:36:54.181Z,60.30
2017-11-01T17:39:20.960Z,60.40
2017-11-01T17:41:47.684Z,60.00
2017-11-01T17:44:14.424Z,59.80
2017-11-01T17:46:41.180Z,59.90
2017-11-01T17:49:07.975Z,59.90
2017-11-01T17:51:35.626Z,60.70
2017-11-01T17:54:02.383Z,60.60
2017-11-01T17:56:29.106Z,60.30
2017-11-01T17:58:55.879Z,59.90
2017-11-01T18:01:22.740Z,59.70
2017-11-01T18:03:49.508Z,59.70
2017-11-01T18:06:17.009Z,60.10
2017-11-01T18:08:43.943Z,60.00
2017-11-01T18:11:10.704Z,59.80
2017-11-01T18:13:37.477Z,60.10
2017-11-01T18:18:37.431Z,60.70
2017-11-01T18:21:04.926Z,60.70
2017-11-01T18:23:31.669Z,61.10
2017-11-01T18:25:58.432Z,61.70
2017-11-01T18:28:25.196Z,61.80
2017-11-01T18:30:51.963Z,61.70
2017-11-01T18:33:18.717Z,62.10
2017-11-01T18:35:45.499Z,62.20
2017-11-01T18:38:12.996Z,62.20
2017-11-01T18:40:39.756Z,62.20
2017-11-01T18:43:06.533Z,62.30
2017-11-01T18:45:34.033Z,63.60
2017-11-01T18:48:00.816Z,62.60
2017-11-01T18:50:27.539Z,62.80
2017-11-01T18:52:55.194Z,63.10
2017-11-01T18:55:21.994Z,63.10
2017-11-01T18:57:48.769Z,63.40
2017-11-01T19:00:15.546Z,63.70
2017-11-01T19:02:42.285Z,63.70
2017-11-01T19:05:09.063Z,63.70
2017-11-01T19:07:35.844Z,63.70
2017-11-01T19:10:02.599Z,63.80
2017-11-01T19:12:29.396Z,64.10
2017-11-01T19:14:56.176Z,64.00
2017-11-01T19:17:22.907Z,64.10
2017-11-01T19:19:49.665Z,64.40
2017-11-01T19:22:17.172Z,65.30
2017-11-01T19:24:44.054Z,64.50
2017-11-01T19:27:10.788Z,64.60
2017-11-01T19:29:37.773Z,64.70
2017-11-01T19:32:04.549Z,64.60
2017-11-01T19:34:31.323Z,64.80
2017-11-01T19:36:58.080Z,64.70
2017-11-01T19:39:25.596Z,64.90
2017-11-01T19:41:52.373Z,64.80
2017-11-01T19:44:19.911Z,65.10
2017-11-01T19:46:46.653Z,65.00
2017-11-01T19:49:13.590Z,65.20
2017-11-01T19:51:40.325Z,65.10
2017-11-01T19:54:07.143Z,65.10
2017-11-01T19:56:33.898Z,65.40
2017-11-01T19:59:00.740Z,65.30
2017-11-01T20:01:27.534Z,65.40
2017-11-01T20:03:55.091Z,65.20
2017-11-01T20:06:22.599Z,65.50
2017-11-01T20:08:49.371Z,65.30
2017-11-01T20:11:16.866Z,65.10
2017-11-01T20:13:43.616Z,65.00
2017-11-01T20:16:10.389Z,65.30
2017-11-01T20:18:37.120Z,64.90
2017-11-01T20:21:05.426Z,65.00
2017-11-01T20:23:32.966Z,65.00
2017-11-01T20:25:59.726Z,65.00
2017-11-01T20:28:26.496Z,64.80
2017-11-01T20:30:53.242Z,64.80
2017-11-01T20:33:20.017Z,65.00
2017-11-01T20:35:46.860Z,65.30
2017-11-01T20:38:13.603Z,65.10
2017-11-01T20:40:41.225Z,65.80
2017-11-01T20:43:08.073Z,65.60
2017-11-01T20:45:34.994Z,65.40
2017-11-01T20:48:01.765Z,65.40
2017-11-01T20:50:30.060Z,65.30
2017-11-01T20:52:56.848Z,65.30
2017-11-01T20:55:23.617Z,65.40
2017-11-01T20:57:50.404Z,65.40
2017-11-01T21:00:17.862Z,65.40
2017-11-01T21:02:44.627Z,65.40
2017-11-01T21:05:11.377Z,65.30
2017-11-01T21:07:38.168Z,65.20
2017-11-01T21:10:05.693Z,65.40
2017-11-01T21:12:32.451Z,65.40
2017-11-01T21:14:59.978Z,65.90
2017-11-01T21:17:26.730Z,65.90
2017-11-01T21:19:53.490Z,66.20
2017-11-01T21:22:21.027Z,66.30
2017-11-01T21:24:47.776Z,66.30
2017-11-01T21:27:14.545Z,66.60
2017-11-01T21:29:41.301Z,66.60
2017-11-01T21:32:08.060Z,66.70
2017-11-01T21:34:34.800Z,66.60
2017-11-01T21:37:01.606Z,66.80
2017-11-01T21:39:28.388Z,66.90
2017-11-01T21:41:55.151Z,66.90
2017-11-01T21:44:21.928Z,67.10
2017-11-01T21:46:48.669Z,67.90
2017-11-01T21:49:15.414Z,67.10
2017-11-01T21:51:42.354Z,67.10
2017-11-01T21:54:09.132Z,67.20
2017-11-01T21:56:35.876Z,67.20
2017-11-01T21:59:02.626Z,67.30
2017-11-01T22:01:29.365Z,67.40
2017-11-01T22:03:56.142Z,68.20
2017-11-01T22:06:22.887Z,67.30
2017-11-01T22:08:49.641Z,67.60
2017-11-01T22:11:16.402Z,67.50
2017-11-01T22:13:43.147Z,67.60
2017-11-01T22:16:09.905Z,67.70
2017-11-01T22:18:36.728Z,67.70
2017-11-01T22:21:03.501Z,67.50
2017-11-01T22:23:31.019Z,68.00
2017-11-01T22:25:57.829Z,67.80
2017-11-01T22:28:25.328Z,67.70
2017-11-01T22:30:52.069Z,67.80
2017-11-01T22:33:18.957Z,67.80
2017-11-01T22:35:45.791Z,67.90
2017-11-01T22:38:12.666Z,67.80
2017-11-01T22:40:39.467Z,67.90
2017-11-01T22:43:06.203Z,67.90
2017-11-01T22:45:33.735Z,68.10
2017-11-01T22:48:00.477Z,67.90
2017-11-01T22:50:28.037Z,68.80
2017-11-01T22:52:54.777Z,68.10
2017-11-01T22:55:22.290Z,68.40
2017-11-01T22:57:49.048Z,68.40
2017-11-01T23:00:15.775Z,68.40
2017-11-01T23:02:42.540Z,68.50
2017-11-01T23:05:09.398Z,68.60
2017-11-01T23:07:37.170Z,68.50
2017-11-01T23:10:04.698Z,68.50
2017-11-01T23:12:31.461Z,68.50
2017-11-01T23:14:58.966Z,68.60
2017-11-01T23:17:25.787Z,68.50
2017-11-01T23:19:53.260Z,68.40
2017-11-01T23:22:20.026Z,68.40
2017-11-01T23:24:46.756Z,68.60
2017-11-01T23:27:13.505Z,68.50
2017-11-01T23:29:40.292Z,68.50
2017-11-01T23:32:07.076Z,68.50
2017-11-01T23:34:33.811Z,68.50
2017-11-01T23:37:00.558Z,68.40
2017-11-01T23:39:27.313Z,68.30
2017-11-01T23:41:54.052Z,68.30
2017-11-01T23:44:20.789Z,68.30
2017-11-01T23:46:47.558Z,68.30
2017-11-01T23:49:14.284Z,68.30
2017-11-01T23:51:41.775Z,68.20
2017-11-01T23:54:08.573Z,68.10
2017-11-01T23:56:35.310Z,68.20
2017-11-01T23:59:02.820Z,68.00
